Discovery Bay, Washington
Current Conditions -  °F | °C
As of 6:56 AM on Friday 19 Dec 2014 (Local Time) from KNUW Reporting Station
Overcast Overcast  
Wind Chill: 44°   Ceiling: 3800
Heat Index: 49°   Visibility: 9mi
Dew Point: 41°   Wind: 13mph
Humidity: 74%   Direction: 150°SSE
Pressure: 29.81"   Gusts: NA
Location:  48.026°N, 122.859°W
Report Text: KNUW 191456Z 15011KT 9SM BKN038 BKN080 OVC140 09/05 A2981 RMK AO2 RAB13E50 SLP099 P0000 60001 T00940050 53013 VISNO E $
Loading
Personal Weather Stations






























Interactive Weather Map New forecast layout! Learn more

10-Day Weather Forecast

Advertisements
Track Severe Weather on mobile